createdAt,value
2019-05-26T00:01:55.407Z,13.65
2019-05-26T00:04:23.200Z,13.67
2019-05-26T00:06:51.046Z,13.62
2019-05-26T00:09:18.876Z,13.53
2019-05-26T00:11:47.066Z,13.51
2019-05-26T00:14:14.867Z,13.50
2019-05-26T00:16:42.676Z,13.46
2019-05-26T00:19:10.584Z,13.44
2019-05-26T00:21:38.364Z,13.38
2019-05-26T00:24:06.133Z,13.39
2019-05-26T00:26:33.969Z,13.31
2019-05-26T00:29:01.813Z,13.24
2019-05-26T00:31:29.654Z,13.28
2019-05-26T00:33:57.453Z,13.20
2019-05-26T00:36:25.266Z,13.15
2019-05-26T00:38:53.055Z,13.16
2019-05-26T00:41:20.880Z,13.28
2019-05-26T00:43:48.695Z,13.13
2019-05-26T00:46:16.477Z,13.07
2019-05-26T00:48:44.463Z,13.09
2019-05-26T00:51:12.293Z,13.02
2019-05-26T00:53:40.096Z,12.91
2019-05-26T00:56:07.956Z,12.99
2019-05-26T00:58:35.796Z,12.82
2019-05-26T01:01:03.990Z,12.92
2019-05-26T01:03:31.783Z,12.93
2019-05-26T01:05:59.544Z,12.86
2019-05-26T01:08:27.359Z,12.89
2019-05-26T01:10:55.144Z,12.85
2019-05-26T01:13:22.970Z,12.77
2019-05-26T01:15:50.741Z,12.81
2019-05-26T01:18:18.637Z,12.78
2019-05-26T01:20:46.439Z,12.68
2019-05-26T01:23:14.257Z,12.63
2019-05-26T01:25:42.899Z,12.59
2019-05-26T01:28:10.709Z,12.61
2019-05-26T01:30:39.050Z,12.66
2019-05-26T01:33:07.251Z,12.56
2019-05-26T01:35:39.525Z,12.54
2019-05-26T01:38:22.626Z,12.54
2019-05-26T01:40:40.345Z,12.54
2019-05-26T01:43:08.523Z,12.55
2019-05-26T01:45:36.315Z,12.48
2019-05-26T01:48:05.326Z,12.47
2019-05-26T01:50:33.113Z,12.41
2019-05-26T01:53:00.914Z,12.44
2019-05-26T01:55:28.703Z,12.46
2019-05-26T01:57:56.524Z,12.53
2019-05-26T02:00:24.915Z,12.43
2019-05-26T02:02:52.687Z,12.37
2019-05-26T02:05:20.480Z,12.34
2019-05-26T02:07:48.309Z,12.49
2019-05-26T02:10:16.186Z,12.45
2019-05-26T02:12:44.024Z,12.33
2019-05-26T02:15:13.458Z,12.22
2019-05-26T02:17:41.260Z,12.29
2019-05-26T02:20:09.436Z,12.28
2019-05-26T02:22:37.319Z,12.37
2019-05-26T02:25:06.537Z,12.28
2019-05-26T02:27:34.364Z,12.28
2019-05-26T02:30:02.233Z,12.14
2019-05-26T02:32:30.044Z,12.11
2019-05-26T02:34:57.800Z,12.06
2019-05-26T02:37:25.596Z,12.09
2019-05-26T02:39:53.365Z,12.05
2019-05-26T02:42:21.129Z,12.13
2019-05-26T02:44:48.915Z,12.14
2019-05-26T02:47:16.701Z,12.05
2019-05-26T02:49:44.520Z,12.13
2019-05-26T02:52:12.308Z,11.93
2019-05-26T02:54:40.110Z,11.91
2019-05-26T02:57:07.902Z,11.94
2019-05-26T02:59:35.692Z,11.85
2019-05-26T03:02:04.835Z,11.82
2019-05-26T03:04:32.871Z,11.87
2019-05-26T03:07:02.714Z,11.94
2019-05-26T03:09:32.902Z,11.87
2019-05-26T03:12:02.612Z,11.93
2019-05-26T03:14:33.462Z,11.72
2019-05-26T03:17:01.757Z,11.62
2019-05-26T03:19:32.628Z,11.70
2019-05-26T03:22:02.452Z,11.64
2019-05-26T03:24:32.154Z,11.75
2019-05-26T03:27:00.003Z,11.70
2019-05-26T03:29:27.787Z,11.67
2019-05-26T03:31:55.707Z,11.68
2019-05-26T03:34:23.475Z,11.67
2019-05-26T03:36:51.354Z,11.71
2019-05-26T03:39:19.116Z,11.78
2019-05-26T03:41:46.929Z,11.74
2019-05-26T03:44:14.719Z,11.72
2019-05-26T03:46:42.524Z,11.72
2019-05-26T03:49:10.320Z,11.69
2019-05-26T03:51:38.160Z,11.72
2019-05-26T03:54:05.970Z,11.76
2019-05-26T03:56:33.768Z,11.70
2019-05-26T03:59:01.575Z,11.75
2019-05-26T04:01:29.363Z,11.76
2019-05-26T04:03:57.140Z,11.73
2019-05-26T04:06:24.925Z,11.78
2019-05-26T04:08:52.738Z,11.82
2019-05-26T04:11:20.519Z,11.85
2019-05-26T04:13:48.317Z,11.93
2019-05-26T04:16:16.097Z,11.93
2019-05-26T04:18:43.909Z,11.84
2019-05-26T04:21:11.844Z,11.93
2019-05-26T04:23:39.668Z,11.94
2019-05-26T04:26:07.485Z,11.96
2019-05-26T04:28:35.275Z,12.04
2019-05-26T04:31:03.150Z,12.02
2019-05-26T04:33:30.977Z,12.06
2019-05-26T04:35:58.818Z,12.14
2019-05-26T04:38:26.628Z,12.18
2019-05-26T04:40:54.469Z,12.20
2019-05-26T04:43:22.225Z,12.37
2019-05-26T04:45:50.024Z,12.38
2019-05-26T04:48:17.839Z,12.43
2019-05-26T04:50:45.609Z,12.49
2019-05-26T04:53:13.443Z,12.57
2019-05-26T04:55:41.219Z,12.64
2019-05-26T04:58:09.027Z,12.76
2019-05-26T05:00:36.839Z,12.74
2019-05-26T05:03:04.715Z,12.81
2019-05-26T05:05:32.505Z,12.94
2019-05-26T05:08:00.284Z,13.11
2019-05-26T05:10:41.430Z,13.22
2019-05-26T05:12:57.797Z,13.47
2019-05-26T05:15:25.731Z,13.74
2019-05-26T05:17:53.559Z,13.93
2019-05-26T05:20:21.341Z,14.13
2019-05-26T05:22:49.195Z,14.29
2019-05-26T05:25:17.175Z,14.49
2019-05-26T05:27:45.743Z,14.75
2019-05-26T05:30:14.415Z,14.95
2019-05-26T05:32:42.260Z,15.22
2019-05-26T05:35:10.481Z,15.68
2019-05-26T05:37:38.301Z,16.08
2019-05-26T05:40:07.239Z,16.42
2019-05-26T05:42:34.998Z,16.74
2019-05-26T05:45:03.273Z,17.08
2019-05-26T05:47:31.036Z,17.40
2019-05-26T05:49:58.860Z,17.83
2019-05-26T05:52:26.672Z,18.25
2019-05-26T05:54:54.482Z,18.64
2019-05-26T05:57:22.285Z,19.05
2019-05-26T05:59:50.098Z,19.51
2019-05-26T06:02:17.919Z,20.10
2019-05-26T06:04:45.707Z,20.42
2019-05-26T06:07:13.474Z,20.71
2019-05-26T06:09:41.240Z,21.08
2019-05-26T06:12:09.037Z,21.37
2019-05-26T06:14:36.849Z,21.49
2019-05-26T06:17:04.687Z,21.66
2019-05-26T06:19:32.529Z,21.83
2019-05-26T06:22:00.317Z,22.25
2019-05-26T06:24:28.139Z,22.81
2019-05-26T06:26:55.918Z,23.47
2019-05-26T06:29:23.713Z,24.00
2019-05-26T06:31:51.770Z,24.08
2019-05-26T06:34:19.737Z,24.25
2019-05-26T06:36:47.559Z,24.67
2019-05-26T06:39:15.390Z,24.86
2019-05-26T06:41:43.166Z,24.66
2019-05-26T06:44:11.012Z,25.52
2019-05-26T06:46:38.786Z,26.69
2019-05-26T06:49:06.589Z,27.52
2019-05-26T06:51:34.396Z,28.30
2019-05-26T06:54:02.184Z,28.42
2019-05-26T06:56:30.130Z,28.86
2019-05-26T06:59:01.967Z,29.62
2019-05-26T07:01:27.674Z,29.88
2019-05-26T07:03:55.505Z,29.67
2019-05-26T07:06:23.323Z,29.54
2019-05-26T07:08:51.182Z,30.05
2019-05-26T07:11:18.982Z,30.64
2019-05-26T07:13:46.777Z,31.59
2019-05-26T07:16:14.630Z,31.29
2019-05-26T07:18:42.451Z,31.19
2019-05-26T07:21:10.266Z,31.83
2019-05-26T07:23:38.162Z,32.88
2019-05-26T07:26:06.071Z,33.57
2019-05-26T07:28:33.930Z,33.31
2019-05-26T07:31:01.744Z,33.24
2019-05-26T07:33:29.565Z,33.27
2019-05-26T07:35:57.674Z,33.55
2019-05-26T07:38:25.491Z,34.54
2019-05-26T07:40:53.337Z,34.95
2019-05-26T07:43:21.140Z,34.66
2019-05-26T07:45:48.993Z,35.16
2019-05-26T07:48:16.752Z,35.68
2019-05-26T07:50:44.558Z,36.19
2019-05-26T07:53:12.504Z,35.83
2019-05-26T07:55:40.299Z,35.78
2019-05-26T07:58:08.116Z,34.48
2019-05-26T08:00:35.995Z,35.93
2019-05-26T08:03:03.850Z,36.93
2019-05-26T08:05:31.656Z,36.93
2019-05-26T08:08:12.278Z,36.36
2019-05-26T08:10:29.265Z,36.92
2019-05-26T08:12:57.034Z,38.04
2019-05-26T08:15:24.876Z,38.43
2019-05-26T08:17:52.696Z,38.33
2019-05-26T08:20:20.596Z,38.51
2019-05-26T08:22:48.389Z,38.09
2019-05-26T08:25:16.225Z,37.87
2019-05-26T08:27:44.093Z,37.96
2019-05-26T08:30:14.207Z,38.18
2019-05-26T08:32:42.014Z,38.50
2019-05-26T08:35:09.839Z,39.49
2019-05-26T08:37:37.682Z,40.01
2019-05-26T08:40:17.969Z,39.17
2019-05-26T08:42:47.643Z,39.91
2019-05-26T08:45:15.560Z,40.63
2019-05-26T08:47:43.419Z,41.00
2019-05-26T08:50:11.440Z,41.59
2019-05-26T08:52:39.236Z,42.29
2019-05-26T08:55:07.551Z,42.84
2019-05-26T08:57:35.356Z,43.02
2019-05-26T09:00:03.945Z,42.19
2019-05-26T09:02:31.764Z,43.10
2019-05-26T09:04:59.605Z,42.79
2019-05-26T09:07:27.390Z,41.97
2019-05-26T09:09:55.203Z,42.15
2019-05-26T09:12:23.038Z,42.75
2019-05-26T09:14:50.870Z,44.00
2019-05-26T09:17:18.706Z,44.07
2019-05-26T09:19:46.542Z,44.95
2019-05-26T09:22:14.362Z,45.78
2019-05-26T09:24:42.147Z,45.78
2019-05-26T09:27:09.956Z,46.71
2019-05-26T09:29:37.781Z,46.20
2019-05-26T09:32:05.583Z,46.47
2019-05-26T09:34:33.369Z,47.02
2019-05-26T09:37:01.195Z,44.79
2019-05-26T09:39:28.993Z,44.56
2019-05-26T09:41:56.793Z,43.37
2019-05-26T09:44:24.587Z,43.63
2019-05-26T09:46:52.371Z,44.10
2019-05-26T09:49:20.191Z,45.26
2019-05-26T09:51:48.025Z,45.48
2019-05-26T09:54:15.846Z,43.46
2019-05-26T09:56:43.672Z,41.72
2019-05-26T09:59:11.447Z,42.99
2019-05-26T10:01:39.239Z,44.30
2019-05-26T10:04:07.065Z,44.83
2019-05-26T10:06:34.869Z,45.68
2019-05-26T10:09:04.468Z,46.23
2019-05-26T10:11:32.293Z,46.61
2019-05-26T10:14:00.093Z,47.64
2019-05-26T10:16:27.946Z,48.50
2019-05-26T10:18:55.761Z,46.88
2019-05-26T10:21:23.634Z,45.57
2019-05-26T10:23:53.139Z,43.71
2019-05-26T10:26:21.242Z,41.47
2019-05-26T10:28:49.127Z,40.62
2019-05-26T10:31:16.973Z,40.05
2019-05-26T10:33:44.774Z,39.67
2019-05-26T10:36:12.582Z,40.39
2019-05-26T10:38:40.380Z,41.45
2019-05-26T10:41:08.173Z,37.28
2019-05-26T10:43:46.743Z,36.29
2019-05-26T10:46:05.711Z,36.87
2019-05-26T10:48:33.604Z,38.46
2019-05-26T10:51:01.414Z,39.37
2019-05-26T10:53:29.295Z,39.63
2019-05-26T10:55:57.177Z,40.64
2019-05-26T10:58:25.029Z,41.06
2019-05-26T11:00:52.833Z,40.62
2019-05-26T11:03:20.644Z,41.00
2019-05-26T11:05:48.448Z,41.00
2019-05-26T11:08:16.290Z,39.43
2019-05-26T11:10:44.183Z,40.58
2019-05-26T11:13:11.999Z,42.53
2019-05-26T11:15:39.804Z,42.28
2019-05-26T11:18:07.636Z,41.65
2019-05-26T11:20:35.419Z,43.30
2019-05-26T11:23:04.937Z,44.24
2019-05-26T11:25:32.740Z,43.11
2019-05-26T11:28:00.538Z,42.85
2019-05-26T11:30:28.717Z,41.37
2019-05-26T11:32:59.543Z,38.01
2019-05-26T11:35:26.277Z,36.85
2019-05-26T11:37:54.125Z,37.81
2019-05-26T11:40:22.119Z,38.96
2019-05-26T11:42:49.941Z,36.40
2019-05-26T11:45:19.464Z,36.96
2019-05-26T11:47:47.281Z,36.44
2019-05-26T11:50:15.611Z,35.68
2019-05-26T11:52:43.453Z,37.51
2019-05-26T11:55:12.870Z,38.82
2019-05-26T11:57:41.342Z,40.54
2019-05-26T12:00:14.400Z,41.49
2019-05-26T12:02:43.181Z,42.13
2019-05-26T12:05:11.303Z,40.89
2019-05-26T12:07:39.117Z,40.79
2019-05-26T12:10:07.650Z,41.10
2019-05-26T12:12:35.569Z,41.87
2019-05-26T12:15:04.692Z,43.79
2019-05-26T12:17:32.498Z,44.84
2019-05-26T12:20:00.373Z,44.42
2019-05-26T12:22:28.252Z,42.68
2019-05-26T12:24:56.072Z,42.74
2019-05-26T12:27:23.897Z,44.22
2019-05-26T12:29:51.743Z,45.29
2019-05-26T12:32:19.568Z,45.56
2019-05-26T12:34:47.440Z,45.57
2019-05-26T12:37:15.232Z,45.27
2019-05-26T12:39:43.097Z,44.31
2019-05-26T12:42:10.929Z,42.53
2019-05-26T12:44:49.085Z,41.69
2019-05-26T12:47:08.480Z,41.16
2019-05-26T12:49:36.339Z,40.08
2019-05-26T12:52:04.443Z,41.76
2019-05-26T12:54:32.222Z,42.29
2019-05-26T12:57:00.036Z,41.60
2019-05-26T12:59:27.824Z,40.61
2019-05-26T13:01:55.668Z,39.15
2019-05-26T13:04:23.475Z,38.17
2019-05-26T13:06:51.397Z,39.25
2019-05-26T13:09:19.209Z,39.55
2019-05-26T13:11:47.031Z,38.32
2019-05-26T13:14:14.848Z,38.62
2019-05-26T13:16:42.696Z,38.66
2019-05-26T13:19:10.500Z,40.89
2019-05-26T13:21:38.323Z,39.78
2019-05-26T13:24:06.149Z,36.12
2019-05-26T13:26:33.977Z,36.03
2019-05-26T13:29:01.812Z,36.47
2019-05-26T13:31:29.639Z,34.70
2019-05-26T13:33:57.441Z,33.64
2019-05-26T13:36:25.418Z,35.40
2019-05-26T13:38:53.208Z,35.53
2019-05-26T13:41:21.066Z,35.00
2019-05-26T13:43:48.904Z,34.01
2019-05-26T13:46:16.715Z,32.36
2019-05-26T13:48:44.486Z,31.16
2019-05-26T13:51:12.302Z,30.49
2019-05-26T13:53:40.216Z,29.89
2019-05-26T13:56:08.046Z,29.46
2019-05-26T13:58:35.928Z,29.43
2019-05-26T14:01:03.849Z,29.53
2019-05-26T14:03:31.727Z,29.37
2019-05-26T14:05:59.531Z,29.11
2019-05-26T14:08:27.427Z,28.96
2019-05-26T14:10:55.330Z,28.66
2019-05-26T14:13:23.340Z,28.49
2019-05-26T14:15:54.356Z,28.22
2019-05-26T14:18:23.663Z,28.16
2019-05-26T14:20:51.517Z,27.84
2019-05-26T14:23:19.385Z,27.79
2019-05-26T14:25:47.235Z,27.63
2019-05-26T14:28:15.033Z,27.43
2019-05-26T14:30:42.877Z,27.49
2019-05-26T14:33:10.833Z,27.15
2019-05-26T14:35:38.605Z,27.23
2019-05-26T14:38:06.447Z,27.48
2019-05-26T14:40:34.377Z,27.23
2019-05-26T14:43:02.329Z,27.02
2019-05-26T14:45:30.265Z,26.75
2019-05-26T14:47:58.108Z,26.68
2019-05-26T14:50:26.409Z,26.70
2019-05-26T14:52:54.619Z,26.88
2019-05-26T14:55:22.612Z,26.73
2019-05-26T14:57:50.431Z,26.94
2019-05-26T15:00:19.442Z,26.99
2019-05-26T15:02:47.285Z,27.10
2019-05-26T15:05:16.998Z,26.88
2019-05-26T15:07:44.840Z,26.81
2019-05-26T15:10:13.068Z,26.64
2019-05-26T15:12:40.899Z,26.45
2019-05-26T15:15:09.044Z,26.36
2019-05-26T15:17:36.861Z,26.48
2019-05-26T15:20:05.289Z,26.47
2019-05-26T15:22:34.567Z,26.43
2019-05-26T15:25:02.556Z,26.61
2019-05-26T15:27:30.393Z,26.45
2019-05-26T15:29:58.268Z,26.30
2019-05-26T15:32:26.371Z,26.12
2019-05-26T15:34:54.227Z,25.90
2019-05-26T15:37:22.071Z,26.21
2019-05-26T15:39:50.011Z,26.24
2019-05-26T15:42:18.008Z,26.02
2019-05-26T15:44:45.744Z,25.75
2019-05-26T15:47:13.551Z,25.87
2019-05-26T15:49:41.333Z,25.85
2019-05-26T15:52:09.175Z,25.82
2019-05-26T15:54:36.965Z,25.84
2019-05-26T15:57:04.940Z,25.74
2019-05-26T15:59:32.797Z,25.46
2019-05-26T16:02:00.663Z,25.58
2019-05-26T16:04:28.509Z,25.58
2019-05-26T16:06:56.320Z,25.62
2019-05-26T16:09:24.165Z,25.46
2019-05-26T16:11:52.007Z,25.65
2019-05-26T16:14:19.812Z,25.52
2019-05-26T16:16:51.156Z,25.58
2019-05-26T16:19:17.433Z,25.71
2019-05-26T16:21:45.246Z,25.68
2019-05-26T16:24:13.043Z,25.70
2019-05-26T16:26:40.868Z,25.76
2019-05-26T16:29:08.702Z,25.69
2019-05-26T16:31:36.552Z,25.83
2019-05-26T16:34:04.465Z,26.14
2019-05-26T16:36:32.334Z,26.05
2019-05-26T16:39:00.162Z,25.96
2019-05-26T16:41:28.017Z,25.94
2019-05-26T16:43:55.900Z,25.91
2019-05-26T16:46:23.819Z,25.76
2019-05-26T16:48:54.596Z,25.98
2019-05-26T16:51:21.378Z,26.07
2019-05-26T16:53:49.260Z,26.02
2019-05-26T16:56:17.092Z,25.72
2019-05-26T16:58:44.918Z,25.52
2019-05-26T17:01:12.715Z,25.41
2019-05-26T17:03:40.629Z,25.38
2019-05-26T17:06:08.509Z,25.26
2019-05-26T17:08:36.383Z,24.94
2019-05-26T17:11:04.375Z,24.71
2019-05-26T17:13:33.142Z,24.78
2019-05-26T17:16:01.217Z,24.68
2019-05-26T17:18:29.044Z,24.79
2019-05-26T17:20:56.912Z,24.79
2019-05-26T17:23:24.798Z,24.62
2019-05-26T17:25:52.670Z,24.52
2019-05-26T17:28:20.479Z,24.67
2019-05-26T17:30:48.374Z,24.83
2019-05-26T17:33:16.164Z,24.81
2019-05-26T17:35:43.949Z,24.60
2019-05-26T17:38:11.907Z,24.66
2019-05-26T17:40:39.717Z,24.82
2019-05-26T17:43:07.599Z,24.51
2019-05-26T17:45:35.409Z,24.37
2019-05-26T17:48:03.207Z,24.44
2019-05-26T17:50:31.046Z,24.40
2019-05-26T17:52:58.859Z,24.07
2019-05-26T17:55:26.666Z,24.12
2019-05-26T17:57:54.497Z,24.05
2019-05-26T18:00:22.426Z,24.16
2019-05-26T18:02:50.287Z,24.01
2019-05-26T18:05:18.165Z,23.91
2019-05-26T18:07:45.925Z,23.66
2019-05-26T18:10:13.977Z,23.53
2019-05-26T18:12:41.748Z,23.68
2019-05-26T18:15:10.552Z,23.77
2019-05-26T18:17:46.914Z,23.48
2019-05-26T18:20:09.133Z,23.50
2019-05-26T18:22:36.959Z,23.50
2019-05-26T18:25:05.244Z,23.38
2019-05-26T18:27:33.035Z,23.31
2019-05-26T18:30:00.831Z,23.24
2019-05-26T18:32:28.672Z,23.10
2019-05-26T18:34:56.463Z,23.15
2019-05-26T18:37:24.288Z,23.08
2019-05-26T18:39:52.125Z,22.91
2019-05-26T18:42:21.366Z,22.86
2019-05-26T18:44:51.877Z,22.82
2019-05-26T18:47:19.705Z,22.69
2019-05-26T18:49:47.539Z,22.60
2019-05-26T18:52:15.399Z,22.51
2019-05-26T18:54:43.205Z,22.44
2019-05-26T18:57:11.012Z,22.40
2019-05-26T18:59:38.833Z,22.28
2019-05-26T19:02:06.721Z,22.23
2019-05-26T19:04:34.544Z,22.27
2019-05-26T19:07:02.400Z,22.16
2019-05-26T19:09:30.218Z,22.19
2019-05-26T19:11:58.083Z,22.12
2019-05-26T19:14:25.881Z,22.03
2019-05-26T19:16:53.711Z,21.80
2019-05-26T19:19:21.561Z,21.80
2019-05-26T19:21:49.438Z,21.72
2019-05-26T19:24:17.268Z,21.63
2019-05-26T19:26:45.103Z,21.67
2019-05-26T19:29:12.890Z,21.62
2019-05-26T19:31:40.671Z,21.56
2019-05-26T19:34:08.523Z,21.56
2019-05-26T19:36:36.321Z,21.42
2019-05-26T19:39:07.927Z,21.36
2019-05-26T19:41:38.981Z,21.47
2019-05-26T19:44:06.523Z,21.43
2019-05-26T19:46:34.339Z,21.45
2019-05-26T19:49:02.133Z,21.29
2019-05-26T19:51:29.983Z,21.21
2019-05-26T19:53:57.829Z,21.05
2019-05-26T19:56:25.915Z,21.02
2019-05-26T19:58:53.773Z,20.91
2019-05-26T20:01:21.635Z,20.77
2019-05-26T20:03:49.470Z,20.71
2019-05-26T20:06:17.300Z,20.79
2019-05-26T20:08:45.225Z,20.63
2019-05-26T20:11:13.059Z,20.62
2019-05-26T20:13:41.119Z,20.56
2019-05-26T20:16:08.917Z,20.50
2019-05-26T20:18:36.785Z,20.42
2019-05-26T20:21:04.698Z,20.50
2019-05-26T20:23:32.528Z,20.46
2019-05-26T20:26:00.324Z,20.54
2019-05-26T20:28:28.152Z,20.41
2019-05-26T20:30:55.948Z,20.37
2019-05-26T20:33:23.798Z,20.24
2019-05-26T20:35:51.655Z,20.25
2019-05-26T20:38:19.475Z,20.21
2019-05-26T20:40:47.278Z,20.28
2019-05-26T20:43:15.117Z,20.33
2019-05-26T20:45:42.934Z,20.19
2019-05-26T20:48:10.779Z,20.18
2019-05-26T20:50:38.659Z,20.12
2019-05-26T20:53:06.476Z,20.17
2019-05-26T20:55:34.259Z,20.19
2019-05-26T20:58:02.064Z,20.17
2019-05-26T21:00:30.239Z,20.04
2019-05-26T21:02:58.174Z,20.04
2019-05-26T21:05:25.992Z,19.90
2019-05-26T21:07:53.800Z,19.78
2019-05-26T21:10:21.663Z,19.70
2019-05-26T21:12:50.275Z,19.63
2019-05-26T21:15:18.279Z,19.53
2019-05-26T21:17:46.098Z,19.52
2019-05-26T21:20:15.007Z,19.48
2019-05-26T21:22:42.825Z,19.47
2019-05-26T21:25:12.562Z,19.40
2019-05-26T21:27:40.349Z,19.42
2019-05-26T21:30:09.226Z,19.40
2019-05-26T21:32:36.979Z,19.32
2019-05-26T21:35:05.407Z,19.40
2019-05-26T21:37:33.231Z,19.29
2019-05-26T21:40:01.047Z,19.22
2019-05-26T21:42:28.819Z,19.18
2019-05-26T21:44:56.635Z,19.25
2019-05-26T21:47:24.469Z,19.27
2019-05-26T21:50:31.715Z,19.14
2019-05-26T21:52:59.515Z,18.95
2019-05-26T21:55:27.304Z,18.97
2019-05-26T21:57:55.104Z,19.07
2019-05-26T22:00:26.324Z,18.99
2019-05-26T22:02:54.109Z,18.96
2019-05-26T22:05:21.981Z,18.93
2019-05-26T22:07:49.809Z,18.78
2019-05-26T22:10:17.946Z,18.69
2019-05-26T22:12:45.713Z,18.68
2019-05-26T22:15:13.563Z,18.64
2019-05-26T22:17:41.349Z,18.60
2019-05-26T22:20:09.439Z,18.73
2019-05-26T22:22:37.230Z,18.68
2019-05-26T22:25:05.144Z,18.65
2019-05-26T22:27:32.919Z,18.52
2019-05-26T22:30:00.767Z,18.58
2019-05-26T22:32:28.551Z,18.56
2019-05-26T22:34:56.393Z,18.47
2019-05-26T22:37:24.195Z,18.40
2019-05-26T22:39:52.010Z,18.33
2019-05-26T22:42:19.809Z,18.36
2019-05-26T22:44:47.631Z,18.18
2019-05-26T22:47:15.469Z,18.09
2019-05-26T22:49:43.222Z,18.15
2019-05-26T22:52:11.028Z,18.11
2019-05-26T22:54:38.800Z,18.15
2019-05-26T22:57:06.629Z,18.12
2019-05-26T22:59:34.505Z,18.13
2019-05-26T23:02:02.372Z,18.02
2019-05-26T23:04:30.182Z,18.02
2019-05-26T23:06:57.981Z,18.10
2019-05-26T23:09:25.733Z,18.07
2019-05-26T23:11:53.528Z,18.10
2019-05-26T23:14:21.301Z,18.07
2019-05-26T23:16:49.108Z,17.90
2019-05-26T23:19:19.822Z,17.96
2019-05-26T23:21:46.659Z,17.93
2019-05-26T23:24:14.439Z,17.83
2019-05-26T23:26:42.233Z,17.83
2019-05-26T23:29:10.006Z,17.91
2019-05-26T23:31:37.785Z,17.80
2019-05-26T23:34:05.626Z,17.84
2019-05-26T23:36:33.441Z,17.71
2019-05-26T23:39:01.317Z,17.81
2019-05-26T23:41:29.486Z,17.84
2019-05-26T23:43:57.312Z,17.85
2019-05-26T23:46:25.120Z,17.76
2019-05-26T23:48:52.892Z,17.81
2019-05-26T23:51:20.687Z,17.81
2019-05-26T23:53:48.454Z,17.87
2019-05-26T23:56:16.256Z,17.94
2019-05-26T23:58:44.061Z,17.94
